CheckWX is a tool to help pilots better visualize weather data.  It is not intended as a substitute for an official pre-flight weather briefing.

08:10:56 UTC

KDAW METAR
Skyhaven Airport
Rochester, New Hampshire, USA
Current

20 mins ago

KDAW 220751Z AUTO 00000KT 10SM OVC045 02/M04 A3007 RMK AO2 SLP181 T00171044
Observed
Feb-22 @ 07:51 UTC
Visibility
10 SM
Flight Rules
VFR
Cloud Levels
  • Overcast at 4,500' AGL
Temperature
C / 36°F
Dewpoint
-4°C / 25°F
Humidity
65%
Altimeter
30.07" Hg
Pressure
1018.1 hPa
Previous

1 hour ago

KDAW 220651Z AUTO 32008G21KT 10SM CLR 02/M05 A3003 RMK AO2 SLP168 T00221050
Observed
Feb-22 @ 06:51 UTC
Wind
  • 320° at 8 KTS
  • Gusting to KTS
Visibility
10 SM
Flight Rules
VFR
Cloud Levels
  • Clear skies
Temperature
C / 36°F
Dewpoint
-5°C / 23°F
Humidity
60%
Altimeter
30.03" Hg
Pressure
1016.8 hPa
Previous

2 hours ago

KDAW 220551Z AUTO 30012KT 10SM OVC044 03/M04 A2999 RMK AO2 PK WND 30026/0505 SLP154 T00331044 10050 20033 53015
Observed
Feb-22 @ 05:51 UTC
Wind
  • 300° at 12 KTS
Visibility
10 SM
Flight Rules
VFR
Cloud Levels
  • Overcast at 4,400' AGL
Temperature
C / 37°F
Dewpoint
-4°C / 25°F
Humidity
60%
Altimeter
29.99" Hg
Pressure
1015.4 hPa